createdAt,value
2018-09-04T00:01:35.972Z,100394.66
2018-09-04T00:04:04.244Z,100386.67
2018-09-04T00:06:32.484Z,100390.51
2018-09-04T00:09:00.455Z,100389.37
2018-09-04T00:11:28.721Z,100390.77
2018-09-04T00:13:56.996Z,100392.87
2018-09-04T00:16:25.256Z,100390.25
2018-09-04T00:18:53.705Z,100389.23
2018-09-04T00:21:21.745Z,100398.35
2018-09-04T00:23:49.724Z,100393.18
2018-09-04T00:26:17.986Z,100395.53
2018-09-04T00:28:46.194Z,100398.55
2018-09-04T00:31:14.356Z,100403.09
2018-09-04T00:33:42.480Z,100397.14
2018-09-04T00:36:10.716Z,100398.31
2018-09-04T00:38:38.681Z,100397.18
2018-09-04T00:41:06.835Z,100386.73
2018-09-04T00:43:34.874Z,100393.66
2018-09-04T00:46:02.861Z,100385.16
2018-09-04T00:48:30.846Z,100394.39
2018-09-04T00:50:58.960Z,100396.90
2018-09-04T00:53:26.986Z,100398.07
2018-09-04T00:55:54.995Z,100400.92
2018-09-04T00:58:23.132Z,100394.29
2018-09-04T01:00:51.185Z,100405.93
2018-09-04T01:03:19.185Z,100402.31
2018-09-04T01:05:47.824Z,100406.80
2018-09-04T01:08:15.934Z,100402.51
2018-09-04T01:10:43.952Z,100399.16
2018-09-04T01:13:12.109Z,100403.14
2018-09-04T01:15:40.136Z,100406.14
2018-09-04T01:18:08.739Z,100406.65
2018-09-04T01:20:36.784Z,100404.14
2018-09-04T01:23:04.900Z,100403.83
2018-09-04T01:25:32.885Z,100405.16
2018-09-04T01:28:00.995Z,100408.80
2018-09-04T01:30:29.055Z,100408.48
2018-09-04T01:32:57.114Z,100408.16
2018-09-04T01:35:25.380Z,100406.13
2018-09-04T01:37:53.539Z,100405.45
2018-09-04T01:40:21.572Z,100401.84
2018-09-04T01:42:49.624Z,100401.98
2018-09-04T01:45:17.599Z,100396.83
2018-09-04T01:47:45.651Z,100404.48
2018-09-04T01:50:13.715Z,100401.20
2018-09-04T01:52:41.749Z,100403.00
2018-09-04T01:55:09.758Z,100401.84
2018-09-04T01:57:37.810Z,100409.01
2018-09-04T02:00:07.585Z,100403.02
2018-09-04T02:02:35.685Z,100409.66
2018-09-04T02:05:03.749Z,100406.30
2018-09-04T02:07:31.996Z,100397.66
2018-09-04T02:10:00.185Z,100392.20
2018-09-04T02:12:28.239Z,100394.86
2018-09-04T02:14:56.360Z,100384.92
2018-09-04T02:17:24.600Z,100388.91
2018-09-04T02:19:52.580Z,100377.13
2018-09-04T02:22:20.640Z,100381.44
2018-09-04T02:24:48.660Z,100378.76
2018-09-04T02:27:16.650Z,100378.75
2018-09-04T02:29:44.606Z,100371.80
2018-09-04T02:32:12.670Z,100375.27
2018-09-04T02:34:40.786Z,100377.25
2018-09-04T02:37:09.017Z,100366.59
2018-09-04T02:39:37.072Z,100373.28
2018-09-04T02:42:05.240Z,100369.14
2018-09-04T02:44:33.341Z,100365.31
2018-09-04T02:47:01.376Z,100362.31
2018-09-04T02:49:29.357Z,100365.14
2018-09-04T02:51:57.338Z,100368.46
2018-09-04T02:54:25.733Z,100369.97
2018-09-04T02:56:53.787Z,100368.28
2018-09-04T02:59:22.021Z,100376.92
2018-09-04T03:01:50.077Z,100375.59
2018-09-04T03:04:18.142Z,100375.41
2018-09-04T03:06:46.161Z,100375.59
2018-09-04T03:09:14.242Z,100379.25
2018-09-04T03:11:42.280Z,100378.27
2018-09-04T03:14:10.331Z,100376.78
2018-09-04T03:16:38.554Z,100380.78
2018-09-04T03:19:06.640Z,100378.11
2018-09-04T03:21:34.789Z,100375.30
2018-09-04T03:24:02.816Z,100378.45
2018-09-04T03:26:30.780Z,100376.44
2018-09-04T03:28:58.801Z,100374.62
2018-09-04T03:31:26.872Z,100373.63
2018-09-04T03:33:54.901Z,100371.64
2018-09-04T03:36:23.433Z,100372.45
2018-09-04T03:38:51.604Z,100366.00
2018-09-04T03:41:19.799Z,100366.00
2018-09-04T03:43:47.823Z,100368.46
2018-09-04T03:46:15.810Z,100373.61
2018-09-04T03:48:43.916Z,100369.16
2018-09-04T03:51:12.174Z,100362.17
2018-09-04T03:53:40.435Z,100369.95
2018-09-04T03:56:08.422Z,100372.47
2018-09-04T03:58:36.465Z,100370.31
2018-09-04T04:01:04.628Z,100372.80
2018-09-04T04:03:32.650Z,100375.80
2018-09-04T04:06:00.640Z,100374.95
2018-09-04T04:08:28.954Z,100382.09
2018-09-04T04:10:56.976Z,100380.95
2018-09-04T04:13:24.999Z,100382.91
2018-09-04T04:15:53.043Z,100378.77
2018-09-04T04:18:21.079Z,100372.64
2018-09-04T04:20:55.584Z,100375.11
2018-09-04T04:23:23.719Z,100379.94
2018-09-04T04:25:51.814Z,100384.08
2018-09-04T04:28:19.816Z,100382.61
2018-09-04T04:30:48.231Z,100388.56
2018-09-04T04:33:16.247Z,100386.09
2018-09-04T04:35:44.278Z,100384.27
2018-09-04T04:38:12.392Z,100388.73
2018-09-04T04:40:40.512Z,100388.23
2018-09-04T04:43:08.684Z,100392.02
2018-09-04T04:45:36.794Z,100383.39
2018-09-04T04:48:04.878Z,100390.41
2018-09-04T04:50:33.112Z,100387.59
2018-09-04T04:53:01.312Z,100398.38
2018-09-04T04:55:29.612Z,100393.55
2018-09-04T04:57:57.837Z,100397.23
2018-09-04T05:00:26.237Z,100402.36
2018-09-04T05:02:54.436Z,100399.86
2018-09-04T05:05:22.631Z,100401.02
2018-09-04T05:07:50.842Z,100404.18
2018-09-04T05:10:19.082Z,100405.99
2018-09-04T05:12:48.191Z,100408.32
2018-09-04T05:15:16.440Z,100405.16
2018-09-04T05:17:44.760Z,100403.17
2018-09-04T05:20:18.576Z,100403.64
2018-09-04T05:22:46.945Z,100405.41
2018-09-04T05:25:15.236Z,100408.58
2018-09-04T05:27:43.445Z,100400.70
2018-09-04T05:30:11.841Z,100406.77
2018-09-04T05:33:18.532Z,100405.95
2018-09-04T05:35:49.296Z,100407.44
2018-09-04T05:38:17.632Z,100417.80
2018-09-04T05:40:45.951Z,100414.95
2018-09-04T05:44:18.427Z,100415.78
2018-09-04T05:46:49.172Z,100416.28
2018-09-04T05:49:22.792Z,100415.58
2018-09-04T05:51:51.011Z,100415.93
2018-09-04T05:54:19.293Z,100416.25
2018-09-04T05:56:47.593Z,100423.64
2018-09-04T05:59:15.695Z,100419.81
2018-09-04T06:01:44.081Z,100419.41
2018-09-04T06:04:12.220Z,100418.53
2018-09-04T06:06:40.576Z,100417.17
2018-09-04T06:09:08.732Z,100417.86
2018-09-04T06:11:36.937Z,100415.78
2018-09-04T06:14:04.944Z,100415.12
2018-09-04T06:16:32.993Z,100418.84
2018-09-04T06:19:00.982Z,100419.98
2018-09-04T06:21:29.236Z,100411.13
2018-09-04T06:23:57.555Z,100399.13
2018-09-04T06:26:25.790Z,100402.87
2018-09-04T06:28:54.070Z,100400.59
2018-09-04T06:31:22.291Z,100396.67
2018-09-04T06:33:50.334Z,100402.27
2018-09-04T06:36:18.384Z,100403.16
2018-09-04T06:38:46.389Z,100404.61
2018-09-04T06:41:14.626Z,100400.72
2018-09-04T06:43:42.848Z,100406.20
2018-09-04T06:46:11.089Z,100403.58
2018-09-04T06:48:39.430Z,100404.91
2018-09-04T06:51:07.650Z,100409.59
2018-09-04T06:53:35.980Z,100410.13
2018-09-04T06:56:04.290Z,100412.29
2018-09-04T06:58:32.531Z,100418.68
2018-09-04T07:01:00.773Z,100425.48
2018-09-04T07:03:28.882Z,100430.35
2018-09-04T07:05:57.213Z,100428.34
2018-09-04T07:08:25.492Z,100434.46
2018-09-04T07:10:53.710Z,100435.47
2018-09-04T07:13:21.931Z,100429.84
2018-09-04T07:15:50.174Z,100440.86
2018-09-04T07:18:18.466Z,100435.66
2018-09-04T07:20:46.752Z,100430.97
2018-09-04T07:23:15.132Z,100433.30
2018-09-04T07:25:43.430Z,100431.75
2018-09-04T07:28:11.631Z,100431.69
2018-09-04T07:30:39.892Z,100435.95
2018-09-04T07:33:08.973Z,100433.32
2018-09-04T07:35:37.131Z,100431.56
2018-09-04T07:38:05.713Z,100437.50
2018-09-04T07:40:33.851Z,100441.41
2018-09-04T07:43:02.135Z,100438.56
2018-09-04T07:45:30.302Z,100447.11
2018-09-04T07:47:58.479Z,100445.61
2018-09-04T07:50:26.575Z,100452.36
2018-09-04T07:52:54.867Z,100449.09
2018-09-04T07:55:23.075Z,100450.14
2018-09-04T07:57:51.315Z,100451.38
2018-09-04T08:00:19.475Z,100443.11
2018-09-04T08:02:47.695Z,100445.83
2018-09-04T08:05:15.983Z,100449.66
2018-09-04T08:07:44.484Z,100443.16
2018-09-04T08:10:12.714Z,100445.66
2018-09-04T08:12:40.875Z,100450.37
2018-09-04T08:15:08.976Z,100450.91
2018-09-04T08:17:37.215Z,100444.00
2018-09-04T08:20:05.455Z,100449.39
2018-09-04T08:22:33.694Z,100453.55
2018-09-04T08:25:01.797Z,100452.80
2018-09-04T08:27:30.095Z,100451.20
2018-09-04T08:29:58.235Z,100451.60
2018-09-04T08:32:26.555Z,100451.11
2018-09-04T08:34:54.815Z,100451.75
2018-09-04T08:37:23.035Z,100450.74
2018-09-04T08:39:51.248Z,100449.81
2018-09-04T08:42:19.495Z,100448.08
2018-09-04T08:44:49.635Z,100444.49
2018-09-04T08:47:18.500Z,100444.73
2018-09-04T08:49:46.535Z,100451.27
2018-09-04T08:52:14.735Z,100448.42
2018-09-04T08:54:43.115Z,100446.73
2018-09-04T08:57:11.595Z,100436.67
2018-09-04T08:59:39.855Z,100435.41
2018-09-04T09:02:07.845Z,100431.09
2018-09-04T09:04:36.095Z,100428.66
2018-09-04T09:07:04.195Z,100417.33
2018-09-04T09:09:32.367Z,100431.66
2018-09-04T09:12:00.455Z,100430.41
2018-09-04T09:14:28.655Z,100429.87
2018-09-04T09:16:56.756Z,100416.66
2018-09-04T09:19:24.868Z,100417.76
2018-09-04T09:21:53.036Z,100424.97
2018-09-04T09:24:21.355Z,100425.19
2018-09-04T09:26:49.538Z,100428.05
2018-09-04T09:29:17.696Z,100427.37
2018-09-04T09:31:45.876Z,100415.91
2018-09-04T09:34:14.155Z,100419.11
2018-09-04T09:36:42.350Z,100419.51
2018-09-04T09:39:11.527Z,100421.89
2018-09-04T09:41:39.895Z,100431.31
2018-09-04T09:44:08.475Z,100427.37
2018-09-04T09:46:36.635Z,100435.45
2018-09-04T09:49:04.964Z,100430.28
2018-09-04T09:51:33.155Z,100424.89
2018-09-04T09:54:01.431Z,100427.32
2018-09-04T09:56:29.690Z,100423.27
2018-09-04T09:58:57.936Z,100424.94
2018-09-04T10:01:35.407Z,100426.11
2018-09-04T10:04:09.348Z,100423.58
2018-09-04T10:06:37.576Z,100416.30
2018-09-04T10:09:08.915Z,100410.58
2018-09-04T10:11:37.196Z,100408.20
2018-09-04T10:14:05.795Z,100403.71
2018-09-04T10:16:34.138Z,100405.02
2018-09-04T10:19:02.335Z,100399.59
2018-09-04T10:21:30.736Z,100399.06
2018-09-04T10:23:59.075Z,100403.66
2018-09-04T10:26:27.442Z,100397.08
2018-09-04T10:28:55.655Z,100392.86
2018-09-04T10:31:23.895Z,100391.80
2018-09-04T10:33:52.134Z,100393.97
2018-09-04T10:36:20.405Z,100389.75
2018-09-04T10:38:48.535Z,100390.27
2018-09-04T10:41:16.774Z,100381.06
2018-09-04T10:43:44.894Z,100393.93
2018-09-04T10:46:14.995Z,100382.50
2018-09-04T10:48:43.195Z,100377.03
2018-09-04T10:51:11.361Z,100381.78
2018-09-04T10:53:39.495Z,100374.55
2018-09-04T10:56:07.696Z,100371.69
2018-09-04T10:58:35.855Z,100367.17
2018-09-04T11:01:04.075Z,100366.22
2018-09-04T11:03:32.296Z,100361.95
2018-09-04T11:06:00.755Z,100350.50
2018-09-04T11:08:28.940Z,100352.47
2018-09-04T11:10:57.117Z,100363.77
2018-09-04T11:13:25.375Z,100364.66
2018-09-04T11:16:00.255Z,100358.41
2018-09-04T11:18:28.408Z,100360.69
2018-09-04T11:20:56.656Z,100347.30
2018-09-04T11:23:24.840Z,100358.97
2018-09-04T11:25:53.115Z,100352.13
2018-09-04T11:28:22.111Z,100358.14
2018-09-04T11:30:50.271Z,100378.53
2018-09-04T11:33:18.428Z,100366.95
2018-09-04T11:35:46.696Z,100353.91
2018-09-04T11:38:14.849Z,100357.68
2018-09-04T11:40:43.424Z,100362.81
2018-09-04T11:43:11.572Z,100361.52
2018-09-04T11:45:39.916Z,100357.30
2018-09-04T11:48:08.167Z,100353.89
2018-09-04T11:50:38.036Z,100355.43
2018-09-04T11:53:06.256Z,100357.73
2018-09-04T11:55:39.136Z,100357.83
2018-09-04T11:58:19.336Z,100360.88
2018-09-04T12:00:48.896Z,100358.42
2018-09-04T12:03:17.875Z,100352.01
2018-09-04T12:05:46.432Z,100352.30
2018-09-04T12:08:16.830Z,100353.04
2018-09-04T12:10:56.276Z,100360.41
2018-09-04T12:13:31.656Z,100358.81
2018-09-04T12:16:01.273Z,100351.69
2018-09-04T12:18:34.016Z,100333.76
2018-09-04T12:21:07.841Z,100330.82
2018-09-04T12:23:36.577Z,100336.94
2018-09-04T12:26:15.955Z,100340.39
2018-09-04T12:28:44.375Z,100344.25
2018-09-04T12:31:14.535Z,100324.45
2018-09-04T12:33:48.045Z,100333.88
2018-09-04T12:36:17.183Z,100339.96
2018-09-04T12:38:49.035Z,100344.35
2018-09-04T12:41:28.483Z,100341.73
2018-09-04T12:43:57.151Z,100341.89
2018-09-04T12:46:30.555Z,100334.31
2018-09-04T12:48:59.316Z,100323.06
2018-09-04T12:51:27.935Z,100327.66
2018-09-04T12:53:58.124Z,100325.56
2018-09-04T12:56:26.775Z,100322.89
2018-09-04T12:58:55.196Z,100337.41
2018-09-04T13:01:24.455Z,100338.84
2018-09-04T13:03:55.175Z,100335.23
2018-09-04T13:06:24.175Z,100332.41
2018-09-04T13:08:52.725Z,100344.48
2018-09-04T13:11:21.315Z,100331.91
2018-09-04T13:13:50.055Z,100333.07
2018-09-04T13:19:03.903Z,100321.36
2018-09-04T13:21:32.335Z,100326.38
2018-09-04T13:24:00.575Z,100333.31
2018-09-04T13:26:29.004Z,100332.94
2018-09-04T13:28:57.335Z,100328.44
2018-09-04T13:31:25.858Z,100323.09
2018-09-04T13:33:54.207Z,100324.86
2018-09-04T13:36:22.559Z,100314.09
2018-09-04T13:38:50.954Z,100329.40
2018-09-04T13:41:19.355Z,100311.66
2018-09-04T13:43:47.835Z,100313.28
2018-09-04T13:46:16.195Z,100309.83
2018-09-04T13:48:44.855Z,100310.55
2018-09-04T13:51:13.055Z,100315.57
2018-09-04T13:53:41.595Z,100317.98
2018-09-04T13:56:09.896Z,100317.61
2018-09-04T13:58:44.856Z,100317.51
2018-09-04T14:01:13.236Z,100318.09
2018-09-04T14:03:41.676Z,100313.12
2018-09-04T14:06:10.104Z,100318.37
2018-09-04T14:08:38.516Z,100318.67
2018-09-04T14:11:06.865Z,100322.20
2018-09-04T14:13:35.596Z,100321.37
2018-09-04T14:16:06.945Z,100316.67
2018-09-04T14:18:35.497Z,100318.97
2018-09-04T14:21:03.821Z,100318.30
2018-09-04T14:23:32.206Z,100309.50
2018-09-04T14:26:00.523Z,100319.66
2018-09-04T14:28:43.278Z,100317.78
2018-09-04T14:30:57.316Z,100317.16
2018-09-04T14:33:25.837Z,100311.16
2018-09-04T14:35:54.290Z,100305.84
2018-09-04T14:38:22.635Z,100307.50
2018-09-04T14:40:51.175Z,100306.31
2018-09-04T14:43:19.475Z,100301.46
2018-09-04T14:45:47.916Z,100306.31
2018-09-04T14:48:16.322Z,100311.04
2018-09-04T14:50:44.707Z,100299.59
2018-09-04T14:53:12.975Z,100305.11
2018-09-04T14:55:41.567Z,100299.12
2018-09-04T14:58:09.936Z,100316.64
2018-09-04T15:00:38.363Z,100310.99
2018-09-04T15:03:06.883Z,100312.40
2018-09-04T15:05:35.455Z,100313.52
2018-09-04T15:08:03.775Z,100320.36
2018-09-04T15:10:32.384Z,100323.81
2018-09-04T15:13:00.856Z,100332.43
2018-09-04T15:15:29.256Z,100323.27
2018-09-04T15:17:57.595Z,100325.73
2018-09-04T15:20:26.120Z,100337.20
2018-09-04T15:22:54.538Z,100332.34
2018-09-04T15:25:23.169Z,100325.73
2018-09-04T15:27:51.596Z,100319.14
2018-09-04T15:30:19.936Z,100323.67
2018-09-04T15:32:48.675Z,100333.53
2018-09-04T15:35:17.156Z,100329.55
2018-09-04T15:37:45.516Z,100329.70
2018-09-04T15:40:13.955Z,100332.76
2018-09-04T15:42:42.613Z,100326.95
2018-09-04T15:45:10.995Z,100335.40
2018-09-04T15:47:39.375Z,100334.11
2018-09-04T15:50:07.775Z,100333.92
2018-09-04T15:52:36.276Z,100338.57
2018-09-04T15:55:04.706Z,100338.03
2018-09-04T15:57:33.086Z,100336.37
2018-09-04T16:00:01.509Z,100328.80
2018-09-04T16:02:29.846Z,100325.47
2018-09-04T16:04:58.430Z,100330.78
2018-09-04T16:07:26.774Z,100338.02
2018-09-04T16:09:55.269Z,100330.05
2018-09-04T16:12:23.487Z,100334.98
2018-09-04T16:14:51.845Z,100334.45
2018-09-04T16:17:20.392Z,100332.85
2018-09-04T16:19:48.719Z,100333.85
2018-09-04T16:22:17.001Z,100345.88
2018-09-04T16:24:45.505Z,100348.06
2018-09-04T16:27:13.756Z,100345.70
2018-09-04T16:29:42.217Z,100340.27
2018-09-04T16:32:10.596Z,100340.27
2018-09-04T16:34:38.837Z,100344.88
2018-09-04T16:37:07.124Z,100341.30
2018-09-04T16:39:35.464Z,100341.02
2018-09-04T16:42:03.835Z,100345.66
2018-09-04T16:44:32.129Z,100350.45
2018-09-04T16:47:00.530Z,100338.64
2018-09-04T16:49:28.761Z,100339.11
2018-09-04T16:51:59.001Z,100347.83
2018-09-04T16:54:28.061Z,100349.84
2018-09-04T16:56:56.369Z,100355.37
2018-09-04T16:59:24.702Z,100355.01
2018-09-04T17:01:53.002Z,100360.69
2018-09-04T17:04:21.308Z,100359.79
2018-09-04T17:06:49.680Z,100361.73
2018-09-04T17:09:18.021Z,100366.30
2018-09-04T17:11:46.710Z,100365.58
2018-09-04T17:14:15.046Z,100371.91
2018-09-04T17:16:43.475Z,100371.84
2018-09-04T17:19:11.834Z,100374.91
2018-09-04T17:21:40.061Z,100380.45
2018-09-04T17:24:08.360Z,100378.58
2018-09-04T17:26:36.845Z,100387.97
2018-09-04T17:29:05.258Z,100383.36
2018-09-04T17:31:33.694Z,100378.80
2018-09-04T17:34:02.118Z,100386.77
2018-09-04T17:36:30.397Z,100384.67
2018-09-04T17:39:28.679Z,100379.72
2018-09-04T17:41:57.072Z,100380.07
2018-09-04T17:44:25.379Z,100379.95
2018-09-04T17:46:53.642Z,100385.55
2018-09-04T17:49:22.107Z,100383.33
2018-09-04T17:51:50.532Z,100383.58
2018-09-04T17:54:18.806Z,100386.81
2018-09-04T17:56:47.207Z,100395.65
2018-09-04T17:59:16.512Z,100391.23
2018-09-04T18:01:45.017Z,100396.46
2018-09-04T18:04:13.291Z,100395.91
2018-09-04T18:06:41.605Z,100403.56
2018-09-04T18:09:09.967Z,100407.73
2018-09-04T18:11:38.305Z,100409.09
2018-09-04T18:14:06.531Z,100410.11
2018-09-04T18:16:34.875Z,100409.98
2018-09-04T18:19:03.194Z,100414.62
2018-09-04T18:21:31.686Z,100416.98
2018-09-04T18:23:59.911Z,100415.17
2018-09-04T18:26:28.268Z,100416.91
2018-09-04T18:28:56.548Z,100422.19
2018-09-04T18:31:24.869Z,100417.72
2018-09-04T18:33:53.208Z,100425.72
2018-09-04T18:36:21.562Z,100430.36
2018-09-04T18:38:50.180Z,100430.91
2018-09-04T18:41:18.749Z,100433.19
2018-09-04T18:43:47.185Z,100440.67
2018-09-04T18:46:15.468Z,100446.48
2018-09-04T18:48:43.888Z,100444.47
2018-09-04T18:51:12.152Z,100446.32
2018-09-04T18:56:07.989Z,100460.73
2018-09-04T18:58:36.278Z,100464.55
2018-09-04T19:01:04.737Z,100465.73
2018-09-04T19:03:33.245Z,100467.15
2018-09-04T19:06:01.521Z,100466.17
2018-09-04T19:08:29.823Z,100464.35
2018-09-04T19:10:58.156Z,100466.30
2018-09-04T19:13:26.548Z,100467.46
2018-09-04T19:15:55.034Z,100471.03
2018-09-04T19:18:23.500Z,100473.75
2018-09-04T19:20:52.909Z,100471.72
2018-09-04T19:23:21.381Z,100470.41
2018-09-04T19:25:49.776Z,100474.40
2018-09-04T19:28:18.136Z,100468.47
2018-09-04T19:30:47.051Z,100474.64
2018-09-04T19:33:15.408Z,100475.62
2018-09-04T19:35:43.894Z,100481.89
2018-09-04T19:38:12.209Z,100483.53
2018-09-04T19:40:40.497Z,100480.75
2018-09-04T19:43:09.172Z,100480.38
2018-09-04T19:45:37.701Z,100486.55
2018-09-04T19:48:06.262Z,100488.98
2018-09-04T19:50:34.816Z,100485.86
2018-09-04T19:53:03.112Z,100490.08
2018-09-04T19:55:31.471Z,100492.58
2018-09-04T19:57:59.884Z,100491.73
2018-09-04T20:00:28.300Z,100490.39
2018-09-04T20:02:56.777Z,100496.05
2018-09-04T20:05:25.237Z,100501.41
2018-09-04T20:07:53.857Z,100500.30
2018-09-04T20:10:22.297Z,100508.02
2018-09-04T20:12:50.832Z,100499.42
2018-09-04T20:15:19.312Z,100501.48
2018-09-04T20:17:47.893Z,100502.22
2018-09-04T20:20:16.296Z,100500.91
2018-09-04T20:22:44.705Z,100499.19
2018-09-04T20:25:13.206Z,100498.39
2018-09-04T20:27:41.478Z,100496.23
2018-09-04T20:30:09.876Z,100499.41
2018-09-04T20:32:38.155Z,100504.91
2018-09-04T20:35:06.676Z,100507.42
2018-09-04T20:37:35.235Z,100508.45
2018-09-04T20:40:03.859Z,100507.91
2018-09-04T20:42:32.181Z,100511.09
2018-09-04T20:45:00.500Z,100509.92
2018-09-04T20:47:28.780Z,100508.49
2018-09-04T20:49:57.249Z,100499.52
2018-09-04T20:52:25.905Z,100506.33
2018-09-04T20:54:54.507Z,100508.39
2018-09-04T20:57:21.354Z,100508.86
2018-09-04T21:00:01.314Z,100512.19
2018-09-04T21:02:40.409Z,100515.16
2018-09-04T21:05:19.721Z,100513.48
2018-09-04T21:08:59.193Z,100517.52
2018-09-04T21:11:27.570Z,100513.75
2018-09-04T21:13:56.230Z,100515.75
2018-09-04T21:16:24.508Z,100518.68
2018-09-04T21:18:53.122Z,100508.85
2018-09-04T21:21:21.578Z,100517.38
2018-09-04T21:23:49.858Z,100526.06
2018-09-04T21:26:18.340Z,100524.59
2018-09-04T21:28:46.761Z,100523.73
2018-09-04T21:31:15.108Z,100530.37
2018-09-04T21:33:43.760Z,100530.37
2018-09-04T21:36:12.080Z,100528.56
2018-09-04T21:38:40.540Z,100533.77
2018-09-04T21:41:08.920Z,100524.92
2018-09-04T21:43:37.224Z,100531.09
2018-09-04T21:46:05.818Z,100534.24
2018-09-04T21:48:34.057Z,100535.11
2018-09-04T21:51:02.346Z,100527.94
2018-09-04T21:53:30.545Z,100532.75
2018-09-04T21:55:58.746Z,100537.73
2018-09-04T21:58:27.006Z,100536.73
2018-09-04T22:00:55.527Z,100538.42
2018-09-04T22:03:24.026Z,100541.09
2018-09-04T22:05:52.506Z,100544.41
2018-09-04T22:08:20.837Z,100544.41
2018-09-04T22:10:49.186Z,100542.08
2018-09-04T22:13:17.505Z,100545.41
2018-09-04T22:15:45.747Z,100549.39
2018-09-04T22:18:14.007Z,100549.37
2018-09-04T22:20:42.349Z,100549.90
2018-09-04T22:23:10.683Z,100546.38
2018-09-04T22:25:41.907Z,100549.05
2018-09-04T22:28:10.415Z,100552.84
2018-09-04T22:30:38.846Z,100547.03
2018-09-04T22:33:07.107Z,100548.20
2018-09-04T22:35:35.395Z,100546.19
2018-09-04T22:38:03.775Z,100548.52
2018-09-04T22:40:32.107Z,100549.17
2018-09-04T22:43:00.367Z,100550.30
2018-09-04T22:45:28.747Z,100552.14
2018-09-04T22:47:58.410Z,100554.30
2018-09-04T22:50:32.187Z,100552.73
2018-09-04T22:53:00.508Z,100553.41
2018-09-04T22:55:28.767Z,100553.77
2018-09-04T22:57:57.110Z,100556.55
2018-09-04T23:00:25.379Z,100557.16
2018-09-04T23:02:53.666Z,100555.83
2018-09-04T23:05:21.865Z,100553.50
2018-09-04T23:07:50.220Z,100557.62
2018-09-04T23:10:19.367Z,100550.13
2018-09-04T23:12:47.569Z,100558.92
2018-09-04T23:15:15.636Z,100558.87
2018-09-04T23:17:44.007Z,100558.56
2018-09-04T23:20:12.270Z,100555.91
2018-09-04T23:22:40.643Z,100553.11
2018-09-04T23:25:08.922Z,100551.64
2018-09-04T23:27:37.239Z,100551.31
2018-09-04T23:30:05.804Z,100553.79
2018-09-04T23:32:34.110Z,100558.27
2018-09-04T23:35:02.350Z,100553.65
2018-09-04T23:37:31.746Z,100555.77
2018-09-04T23:40:00.013Z,100556.05
2018-09-04T23:42:32.235Z,100546.39
2018-09-04T23:45:01.742Z,100551.66
2018-09-04T23:47:30.098Z,100542.64
2018-09-04T23:49:58.234Z,100547.59
2018-09-04T23:52:26.400Z,100545.90
2018-09-04T23:54:54.595Z,100542.42
2018-09-04T23:57:22.778Z,100545.37
2018-09-04T23:59:50.850Z,100543.61
